ADDS METAR Data INFO
IDs: Format: Raw Decoded Include TAF

Data at: 1933 UTC 18 Feb 2018

KFBL 181915Z AUTO 17016KT 10SM CLR 04/M01 A2964 RMK AO2
KFBL 181855Z AUTO 17013G21KT 10SM CLR 04/M01 A2965 RMK AO2
KFBL 181835Z AUTO 16017G26KT 10SM CLR 04/M01 A2964 RMK AO2
KFBL 181815Z AUTO 16021G28KT 10SM CLR 03/M02 A2965 RMK AO2
KFBL 181755Z AUTO 16021G27KT 10SM CLR 03/M02 A2966 RMK AO2
KFBL 181735Z AUTO 15022G29KT 10SM CLR 02/M02 A2967 RMK AO2
KFBL 181715Z AUTO 15020G29KT 7SM CLR 02/M03 A2970 RMK AO2
KFBL 181655Z AUTO 15019G29KT 5SM HZ CLR 01/M03 A2972 RMK AO2
KFBL 181635Z AUTO 15018G24KT 7SM CLR 01/M04 A2974 RMK AO2
KFBL 181615Z AUTO 15017G25KT 7SM CLR 00/M04 A2977 RMK AO2
KFBL 181555Z AUTO 15020G32KT 5SM HZ CLR M01/M04 A2978 RMK AO2
KFBL 181535Z AUTO 14019G26KT 5SM HZ CLR M01/M04 A2981 RMK AO2
KFBL 181515Z AUTO 15018G22KT 7SM CLR M02/M05 A2982 RMK AO2
KFBL 181455Z AUTO 14016G23KT 10SM UP CLR M03/M06 A2983 RMK AO2
KFBL 181435Z AUTO 14020G25KT 7SM UP CLR M03/M06 A2984 RMK AO2
KFBL 181415Z AUTO 13019G26KT 7SM CLR M03/M07 A2985 RMK AO2
KFBL 181355Z AUTO 13018G24KT 10SM CLR M03/M07 A2988 RMK AO2
KFBL 181335Z AUTO 12012KT 10SM CLR M04/M08 A2991 RMK AO2
KFBL 181315Z AUTO 12013G17KT 10SM CLR M05/M08 A2992 RMK AO2
KFBL 181255Z AUTO 11013G18KT 10SM CLR M05/M09 A2993 RMK AO2
KFBL 181235Z AUTO 11014KT 10SM CLR M05/M09 A2995 RMK AO2
KFBL 181215Z AUTO 12014G18KT 10SM SCT120 M06/M09 A2997 RMK AO2
KFBL 181155Z AUTO 10013G18KT 10SM BKN120 M06/M10 A2997 RMK AO2
KFBL 181135Z AUTO 11011KT 10SM OVC120 M06/M10 A2999 RMK AO2
KFBL 181115Z AUTO 11008KT 10SM OVC110 M07/M10 A2999 RMK AO2
KFBL 181055Z AUTO 07003KT 10SM OVC100 M08/M10 A3001 RMK AO2
KFBL 181035Z AUTO 00000KT 10SM SCT100 M09/M11 A3003 RMK AO2
KFBL 181015Z AUTO 00000KT 10SM CLR M08/M10 A3005 RMK AO2
KFBL 180955Z AUTO 00000KT 10SM SCT090 M08/M11 A3005 RMK AO2
KFBL 180935Z AUTO 00000KT 10SM BKN090 OVC110 M09/M11 A3004 RMK AO2
KFBL 180915Z AUTO 00000KT 10SM SCT110 M11/M13 A3005 RMK AO2
KFBL 180855Z AUTO 00000KT 10SM CLR M12/M13 A3006 RMK AO2
KFBL 180835Z AUTO 00000KT 10SM SCT110 M12/M14 A3009 RMK AO2
KFBL 180815Z AUTO 00000KT 10SM CLR M13/M15 A3010 RMK AO2
KFBL 180755Z AUTO 00000KT 10SM CLR M13/M14 A3010 RMK AO2
KFBL 180735Z AUTO 00000KT 10SM CLR M13/M14 A3008 RMK AO2
KFBL 180715Z AUTO 00000KT 10SM CLR M13/M14 A3007 RMK AO2
KFBL 180655Z AUTO 00000KT 10SM CLR M12/M13 A3007 RMK AO2
KFBL 180635Z AUTO 00000KT 10SM CLR M13/M14 A3005 RMK AO2
KFBL 180615Z AUTO 00000KT 10SM CLR M13/M14 A3006 RMK AO2
KFBL 180555Z AUTO 00000KT 10SM CLR M12/M14 A3008 RMK AO2
KFBL 180535Z AUTO 00000KT 10SM CLR M11/M13 A3008 RMK AO2
KFBL 180515Z AUTO 00000KT 10SM CLR M11/M14 A3008 RMK AO2
KFBL 180455Z AUTO 00000KT 10SM CLR M08/M11 A3009 RMK AO2
KFBL 180435Z AUTO 00000KT 10SM CLR M09/M13 A3008 RMK AO2
KFBL 180415Z AUTO 00000KT 10SM CLR M12/M15 A3008 RMK AO2
KFBL 180355Z AUTO 00000KT 10SM CLR M09/M13 A3006 RMK AO2
KFBL 180335Z AUTO 00000KT 10SM CLR M08/M13 A3006 RMK AO2
KFBL 180315Z AUTO 00000KT 10SM CLR M07/M12 A3006 RMK AO2
KFBL 180255Z AUTO 00000KT 10SM CLR M06/M11 A3006 RMK AO2
KFBL 180235Z AUTO 00000KT 10SM CLR M04/M11 A3006 RMK AO2
KFBL 180215Z AUTO 00000KT 10SM CLR M04/M11 A3005 RMK AO2
KFBL 180155Z AUTO 26005KT 10SM CLR M03/M11 A3004 RMK AO2
KFBL 180135Z AUTO 26004KT 10SM CLR M03/M11 A3004 RMK AO2
KFBL 180115Z AUTO 26006KT 10SM CLR M03/M11 A3002 RMK AO2
KFBL 180055Z AUTO 27007KT 10SM CLR M03/M10 A3001 RMK AO2
KFBL 180035Z AUTO 28008KT 10SM CLR M02/M10 A3000 RMK AO2
KFBL 180015Z AUTO 27008KT 10SM CLR M01/M09 A2999 RMK AO2
KFBL 172355Z AUTO 26007KT 10SM CLR M01/M08 A2998 RMK AO2
KFBL 172335Z AUTO 27008KT 10SM CLR 00/M08 A2997 RMK AO2
KFBL 172315Z AUTO 27009KT 10SM CLR 01/M08 A2996 RMK AO2
KFBL 172255Z AUTO 26009KT 10SM CLR 01/M07 A2995 RMK AO2
KFBL 172235Z AUTO 26010KT 10SM CLR 01/M08 A2995 RMK AO2
KFBL 172215Z AUTO 28010KT 10SM CLR 02/M07 A2994 RMK AO2
KFBL 172155Z AUTO 27011KT 10SM CLR 02/M06 A2994 RMK AO2
KFBL 172135Z AUTO 22007KT 10SM CLR 01/M05 A2993 RMK AO2
KFBL 172115Z AUTO 26006KT 10SM CLR 01/M04 A2992 RMK AO2
KFBL 172055Z AUTO 26008KT 10SM CLR 01/M04 A2992 RMK AO2
KFBL 172035Z AUTO 26007KT 10SM SCT022 01/M04 A2991 RMK AO2
KFBL 172015Z AUTO 25008KT 10SM SCT020 00/M04 A2991 RMK AO2
KFBL 171955Z AUTO 26009KT 10SM SCT018 M01/M04 A2990 RMK AO2
KFBL 171935Z AUTO 25007KT 10SM SCT016 M01/M04 A2990 RMK AO2
KFBL 171915Z AUTO 27008KT 10SM SCT015 SCT031 M01/M05 A2989 RMK AO2
KFBL 171855Z AUTO 26005KT 10SM BKN013 M01/M05 A2990 RMK AO2
KFBL 171835Z AUTO 24009KT 10SM OVC013 M01/M05 A2990 RMK AO2
KFBL 171815Z AUTO 24008KT 10SM BKN011 M02/M05 A2990 RMK AO2
KFBL 171755Z AUTO 23004KT 10SM BKN011 M02/M06 A2990 RMK AO2
KFBL 171735Z AUTO 23005KT 10SM BKN011 BKN050 M03/M06 A2990 RMK AO2
KFBL 171715Z AUTO 23009KT 10SM OVC011 M03/M06 A2991 RMK AO2
KFBL 171655Z AUTO 22009KT 10SM OVC011 M03/M06 A2991 RMK AO2
KFBL 171635Z AUTO 22007KT 10SM BKN011 BKN016 OVC029 M03/M06 A2990 RMK AO2
KFBL 171615Z AUTO 22007KT 1 3/4SM -SN BKN018 OVC025 M04/M06 A2989 RMK AO2
KFBL 171555Z AUTO 20006KT 1 3/4SM -SN SCT008 BKN023 OVC031 M04/M06 A2989 RMK AO2 P0001
KFBL 171535Z AUTO 19006KT 1SM -SN BKN006 BKN010 OVC020 M04/M06 A2989 RMK AO2 P0001
KFBL 171516Z AUTO 20007KT 1 1/4SM -SN BKN020 OVC026 M04/M06 A2989 RMK AO2
KFBL 171455Z AUTO 19007KT 1SM -SN BKN008 OVC020 M05/M06 A2989 RMK AO2 P0001
KFBL 171435Z AUTO 18007KT 3/4SM -SN OVC003 M05/M06 A2989 RMK AO2 P0001
KFBL 171415Z AUTO 18006KT 1/2SM SN OVC003 M05/M06 A2990 RMK AO2 P0001
KFBL 171355Z AUTO 19008KT 1/2SM SN OVC005 M05/M07 A2990 RMK AO2
KFBL 171335Z AUTO 19008KT 3/4SM -SN BKN005 BKN009 OVC013 M05/M07 A2990 RMK AO2
KFBL 171315Z AUTO 20006KT 1 3/4SM -SN OVC013 M05/M07 A2989 RMK AO2
KFBL 171255Z AUTO 19009KT 2SM -SN BKN015 OVC023 M05/M07 A2989 RMK AO2
KFBL 171235Z AUTO 20007G14KT 2 1/2SM -SN SCT024 BKN041 OVC048 M05/M07 A2990 RMK AO2
KFBL 171215Z AUTO 20009KT 2 1/2SM -SN SCT038 SCT044 OVC050 M04/M07 A2989 RMK AO2
KFBL 171155Z AUTO 19009KT 10SM SCT040 BKN060 OVC085 M04/M09 A2989 RMK AO2
KFBL 171135Z AUTO 19007KT 10SM SCT070 OVC085 M04/M09 A2989 RMK AO2
KFBL 171115Z AUTO 20007G14KT 10SM SCT070 OVC090 M04/M10 A2989 RMK AO2
KFBL 171055Z AUTO 19008KT 10SM SCT080 OVC090 M04/M10 A2990 RMK AO2
KFBL 171035Z AUTO 19007KT 10SM BKN090 M04/M10 A2990 RMK AO2
KFBL 171015Z AUTO 18006KT 10SM SCT100 M04/M10 A2990 RMK AO2
KFBL 170955Z AUTO 19009G15KT 10SM SCT100 M05/M10 A2991 RMK AO2
KFBL 170935Z AUTO 19008KT 10SM SCT100 M05/M10 A2992 RMK AO2
KFBL 170915Z AUTO 18008KT 10SM CLR M05/M11 A2992 RMK AO2
KFBL 170855Z AUTO 18005KT 10SM BKN110 M07/M11 A2993 RMK AO2
KFBL 170835Z AUTO 17007KT 10SM BKN120 M07/M11 A2995 RMK AO2
KFBL 170815Z AUTO 16007KT 10SM SCT075 M08/M12 A2995 RMK AO2
KFBL 170755Z AUTO 17008KT 10SM SCT075 M09/M12 A2996 RMK AO2
KFBL 170736Z AUTO 17007KT 10SM BKN075 M08/M12 A2996 RMK AO2